sensor_id;sensor_type;location;lat;lon;timestamp;P1;durP1;ratioP1;P2;durP2;ratioP2
8542;SDS011;4309;42.658;23.380;2024-03-17T00:00:28;13.00;;;5.78;;
8542;SDS011;4309;42.658;23.380;2024-03-17T00:02:54;13.48;;;6.45;;
8542;SDS011;4309;42.658;23.380;2024-03-17T00:05:23;13.88;;;5.53;;
8542;SDS011;4309;42.658;23.380;2024-03-17T00:07:50;12.77;;;5.23;;
8542;SDS011;4309;42.658;23.380;2024-03-17T00:10:15;12.82;;;6.60;;
8542;SDS011;4309;42.658;23.380;2024-03-17T00:12:42;12.57;;;5.60;;
8542;SDS011;4309;42.658;23.380;2024-03-17T00:15:08;11.07;;;5.57;;
8542;SDS011;4309;42.658;23.380;2024-03-17T00:17:37;11.63;;;6.10;;
8542;SDS011;4309;42.658;23.380;2024-03-17T00:20:03;11.27;;;5.45;;
8542;SDS011;4309;42.658;23.380;2024-03-17T00:22:35;15.57;;;6.70;;
8542;SDS011;4309;42.658;23.380;2024-03-17T00:25:07;13.23;;;5.90;;
8542;SDS011;4309;42.658;23.380;2024-03-17T00:27:34;11.23;;;5.78;;
8542;SDS011;4309;42.658;23.380;2024-03-17T00:30:06;13.13;;;6.07;;
8542;SDS011;4309;42.658;23.380;2024-03-17T00:32:39;11.63;;;5.90;;
8542;SDS011;4309;42.658;23.380;2024-03-17T00:35:06;12.85;;;7.07;;
8542;SDS011;4309;42.658;23.380;2024-03-17T00:37:35;16.75;;;7.38;;
8542;SDS011;4309;42.658;23.380;2024-03-17T00:40:03;15.02;;;7.15;;
8542;SDS011;4309;42.658;23.380;2024-03-17T00:42:32;17.23;;;8.45;;
8542;SDS011;4309;42.658;23.380;2024-03-17T00:44:58;24.83;;;9.63;;
8542;SDS011;4309;42.658;23.380;2024-03-17T00:47:26;21.40;;;9.52;;
8542;SDS011;4309;42.658;23.380;2024-03-17T00:49:53;16.92;;;9.13;;
8542;SDS011;4309;42.658;23.380;2024-03-17T00:52:18;16.35;;;9.05;;
8542;SDS011;4309;42.658;23.380;2024-03-17T00:54:48;21.80;;;9.67;;
8542;SDS011;4309;42.658;23.380;2024-03-17T00:57:14;18.42;;;9.98;;
8542;SDS011;4309;42.658;23.380;2024-03-17T00:59:44;19.73;;;10.32;;
8542;SDS011;4309;42.658;23.380;2024-03-17T01:02:11;20.77;;;9.95;;
8542;SDS011;4309;42.658;23.380;2024-03-17T01:04:42;19.67;;;10.68;;
8542;SDS011;4309;42.658;23.380;2024-03-17T01:07:10;18.80;;;10.48;;
8542;SDS011;4309;42.658;23.380;2024-03-17T01:09:37;23.10;;;10.60;;
8542;SDS011;4309;42.658;23.380;2024-03-17T01:12:04;24.75;;;11.75;;
8542;SDS011;4309;42.658;23.380;2024-03-17T01:14:32;19.38;;;10.65;;
8542;SDS011;4309;42.658;23.380;2024-03-17T01:16:59;21.58;;;11.07;;
8542;SDS011;4309;42.658;23.380;2024-03-17T01:19:25;18.63;;;10.15;;
8542;SDS011;4309;42.658;23.380;2024-03-17T01:21:57;22.83;;;11.50;;
8542;SDS011;4309;42.658;23.380;2024-03-17T01:24:25;21.45;;;10.45;;
8542;SDS011;4309;42.658;23.380;2024-03-17T01:26:51;23.30;;;10.50;;
8542;SDS011;4309;42.658;23.380;2024-03-17T01:29:18;21.98;;;11.45;;
8542;SDS011;4309;42.658;23.380;2024-03-17T01:31:44;20.20;;;11.10;;
8542;SDS011;4309;42.658;23.380;2024-03-17T01:34:10;19.83;;;10.60;;
8542;SDS011;4309;42.658;23.380;2024-03-17T01:36:37;18.83;;;10.05;;
8542;SDS011;4309;42.658;23.380;2024-03-17T01:39:04;20.75;;;11.38;;
8542;SDS011;4309;42.658;23.380;2024-03-17T01:41:32;22.97;;;10.63;;
8542;SDS011;4309;42.658;23.380;2024-03-17T01:43:59;22.52;;;10.70;;
8542;SDS011;4309;42.658;23.380;2024-03-17T01:46:24;20.08;;;10.88;;
8542;SDS011;4309;42.658;23.380;2024-03-17T01:48:51;20.60;;;10.60;;
8542;SDS011;4309;42.658;23.380;2024-03-17T01:51:18;25.30;;;11.82;;
8542;SDS011;4309;42.658;23.380;2024-03-17T01:53:45;27.33;;;11.32;;
8542;SDS011;4309;42.658;23.380;2024-03-17T01:56:11;22.10;;;11.77;;
8542;SDS011;4309;42.658;23.380;2024-03-17T01:58:40;23.80;;;12.02;;
8542;SDS011;4309;42.658;23.380;2024-03-17T02:01:11;20.40;;;10.80;;
8542;SDS011;4309;42.658;23.380;2024-03-17T02:03:41;19.75;;;10.68;;
8542;SDS011;4309;42.658;23.380;2024-03-17T02:06:08;18.20;;;10.35;;
8542;SDS011;4309;42.658;23.380;2024-03-17T02:08:53;18.65;;;10.23;;
8542;SDS011;4309;42.658;23.380;2024-03-17T02:11:32;23.38;;;11.10;;
8542;SDS011;4309;42.658;23.380;2024-03-17T02:14:00;19.95;;;10.63;;
8542;SDS011;4309;42.658;23.380;2024-03-17T02:16:27;21.13;;;10.65;;
8542;SDS011;4309;42.658;23.380;2024-03-17T02:18:57;18.42;;;11.10;;
8542;SDS011;4309;42.658;23.380;2024-03-17T02:21:25;21.10;;;10.70;;
8542;SDS011;4309;42.658;23.380;2024-03-17T02:23:54;20.70;;;10.50;;
8542;SDS011;4309;42.658;23.380;2024-03-17T02:26:21;19.90;;;10.35;;
8542;SDS011;4309;42.658;23.380;2024-03-17T02:28:49;19.48;;;10.77;;
8542;SDS011;4309;42.658;23.380;2024-03-17T02:31:15;20.27;;;10.52;;
8542;SDS011;4309;42.658;23.380;2024-03-17T02:33:43;23.63;;;10.55;;
8542;SDS011;4309;42.658;23.380;2024-03-17T02:36:09;19.33;;;9.90;;
8542;SDS011;4309;42.658;23.380;2024-03-17T02:38:41;17.48;;;9.77;;
8542;SDS011;4309;42.658;23.380;2024-03-17T02:41:26;20.50;;;9.63;;
8542;SDS011;4309;42.658;23.380;2024-03-17T02:43:55;16.67;;;9.27;;
8542;SDS011;4309;42.658;23.380;2024-03-17T02:46:22;21.58;;;10.10;;
8542;SDS011;4309;42.658;23.380;2024-03-17T02:48:53;18.27;;;9.77;;
8542;SDS011;4309;42.658;23.380;2024-03-17T02:51:21;16.88;;;9.57;;
8542;SDS011;4309;42.658;23.380;2024-03-17T02:53:49;17.08;;;9.13;;
8542;SDS011;4309;42.658;23.380;2024-03-17T02:56:16;20.52;;;9.90;;
8542;SDS011;4309;42.658;23.380;2024-03-17T02:58:44;20.83;;;10.02;;
8542;SDS011;4309;42.658;23.380;2024-03-17T03:01:20;17.03;;;9.47;;
8542;SDS011;4309;42.658;23.380;2024-03-17T03:03:48;17.73;;;8.68;;
8542;SDS011;4309;42.658;23.380;2024-03-17T03:06:14;22.10;;;10.80;;
8542;SDS011;4309;42.658;23.380;2024-03-17T03:08:44;19.02;;;9.00;;
8542;SDS011;4309;42.658;23.380;2024-03-17T03:11:16;20.45;;;9.45;;
8542;SDS011;4309;42.658;23.380;2024-03-17T03:13:46;22.73;;;9.23;;
8542;SDS011;4309;42.658;23.380;2024-03-17T03:16:13;16.45;;;9.27;;
8542;SDS011;4309;42.658;23.380;2024-03-17T03:20:58;19.83;;;9.68;;
8542;SDS011;4309;42.658;23.380;2024-03-17T03:23:23;16.88;;;9.30;;
8542;SDS011;4309;42.658;23.380;2024-03-17T03:25:54;17.80;;;9.27;;
8542;SDS011;4309;42.658;23.380;2024-03-17T03:28:23;20.00;;;9.50;;
8542;SDS011;4309;42.658;23.380;2024-03-17T03:30:50;21.20;;;9.98;;
8542;SDS011;4309;42.658;23.380;2024-03-17T03:33:21;18.67;;;10.25;;
8542;SDS011;4309;42.658;23.380;2024-03-17T03:35:48;22.08;;;10.80;;
8542;SDS011;4309;42.658;23.380;2024-03-17T03:38:16;19.80;;;10.60;;
8542;SDS011;4309;42.658;23.380;2024-03-17T03:40:44;21.48;;;10.38;;
8542;SDS011;4309;42.658;23.380;2024-03-17T03:43:11;20.70;;;10.18;;
8542;SDS011;4309;42.658;23.380;2024-03-17T03:45:38;21.17;;;10.73;;
8542;SDS011;4309;42.658;23.380;2024-03-17T03:48:07;20.52;;;10.20;;
8542;SDS011;4309;42.658;23.380;2024-03-17T03:50:37;23.75;;;10.50;;
8542;SDS011;4309;42.658;23.380;2024-03-17T03:53:04;22.58;;;10.90;;
8542;SDS011;4309;42.658;23.380;2024-03-17T03:55:32;28.13;;;9.95;;
8542;SDS011;4309;42.658;23.380;2024-03-17T03:57:57;19.98;;;9.73;;
8542;SDS011;4309;42.658;23.380;2024-03-17T04:00:24;22.23;;;11.40;;
8542;SDS011;4309;42.658;23.380;2024-03-17T04:02:56;20.88;;;9.15;;
8542;SDS011;4309;42.658;23.380;2024-03-17T04:05:23;20.55;;;9.80;;
8542;SDS011;4309;42.658;23.380;2024-03-17T04:07:49;20.58;;;9.55;;
8542;SDS011;4309;42.658;23.380;2024-03-17T04:10:16;18.88;;;9.15;;
8542;SDS011;4309;42.658;23.380;2024-03-17T04:12:45;18.70;;;9.77;;
8542;SDS011;4309;42.658;23.380;2024-03-17T04:15:12;22.77;;;9.60;;
8542;SDS011;4309;42.658;23.380;2024-03-17T04:17:40;18.90;;;9.50;;
8542;SDS011;4309;42.658;23.380;2024-03-17T04:20:05;20.48;;;10.27;;
8542;SDS011;4309;42.658;23.380;2024-03-17T04:22:36;19.65;;;9.90;;
8542;SDS011;4309;42.658;23.380;2024-03-17T04:25:03;27.30;;;11.13;;
8542;SDS011;4309;42.658;23.380;2024-03-17T04:27:30;25.55;;;10.90;;
8542;SDS011;4309;42.658;23.380;2024-03-17T04:29:57;19.52;;;10.05;;
8542;SDS011;4309;42.658;23.380;2024-03-17T04:32:26;21.20;;;10.48;;
8542;SDS011;4309;42.658;23.380;2024-03-17T04:34:57;25.85;;;11.85;;
8542;SDS011;4309;42.658;23.380;2024-03-17T04:37:24;20.08;;;10.95;;
8542;SDS011;4309;42.658;23.380;2024-03-17T04:39:50;21.27;;;9.25;;
8542;SDS011;4309;42.658;23.380;2024-03-17T04:42:17;18.52;;;9.25;;
8542;SDS011;4309;42.658;23.380;2024-03-17T04:44:46;21.58;;;9.82;;
8542;SDS011;4309;42.658;23.380;2024-03-17T04:47:12;18.50;;;9.10;;
8542;SDS011;4309;42.658;23.380;2024-03-17T04:49:43;23.15;;;10.45;;
8542;SDS011;4309;42.658;23.380;2024-03-17T04:52:12;18.98;;;9.70;;
8542;SDS011;4309;42.658;23.380;2024-03-17T04:54:39;13.30;;;7.22;;
8542;SDS011;4309;42.658;23.380;2024-03-17T04:57:09;16.65;;;8.45;;
8542;SDS011;4309;42.658;23.380;2024-03-17T04:59:36;14.75;;;8.15;;
8542;SDS011;4309;42.658;23.380;2024-03-17T05:02:04;14.18;;;7.15;;
8542;SDS011;4309;42.658;23.380;2024-03-17T05:04:30;16.35;;;8.57;;
8542;SDS011;4309;42.658;23.380;2024-03-17T05:06:55;17.97;;;9.23;;
8542;SDS011;4309;42.658;23.380;2024-03-17T05:09:22;15.07;;;7.40;;
8542;SDS011;4309;42.658;23.380;2024-03-17T05:11:52;14.10;;;7.87;;
8542;SDS011;4309;42.658;23.380;2024-03-17T05:14:19;12.23;;;6.07;;
8542;SDS011;4309;42.658;23.380;2024-03-17T05:16:49;14.48;;;6.72;;
8542;SDS011;4309;42.658;23.380;2024-03-17T05:19:15;13.77;;;7.10;;
8542;SDS011;4309;42.658;23.380;2024-03-17T05:21:44;14.70;;;6.35;;
8542;SDS011;4309;42.658;23.380;2024-03-17T05:24:11;11.30;;;6.40;;
8542;SDS011;4309;42.658;23.380;2024-03-17T05:26:39;11.68;;;5.38;;
8542;SDS011;4309;42.658;23.380;2024-03-17T05:29:06;10.88;;;5.90;;
8542;SDS011;4309;42.658;23.380;2024-03-17T05:31:32;12.57;;;6.80;;
8542;SDS011;4309;42.658;23.380;2024-03-17T05:33:59;13.00;;;7.45;;
8542;SDS011;4309;42.658;23.380;2024-03-17T05:36:26;12.67;;;6.60;;
8542;SDS011;4309;42.658;23.380;2024-03-17T05:38:53;14.02;;;7.43;;
8542;SDS011;4309;42.658;23.380;2024-03-17T05:41:20;15.57;;;7.57;;
8542;SDS011;4309;42.658;23.380;2024-03-17T05:43:47;16.65;;;8.00;;
8542;SDS011;4309;42.658;23.380;2024-03-17T05:46:15;14.75;;;7.78;;
8542;SDS011;4309;42.658;23.380;2024-03-17T05:48:41;12.93;;;7.00;;
8542;SDS011;4309;42.658;23.380;2024-03-17T05:51:09;16.45;;;7.82;;
8542;SDS011;4309;42.658;23.380;2024-03-17T05:53:38;15.95;;;8.00;;
8542;SDS011;4309;42.658;23.380;2024-03-17T05:56:12;13.80;;;7.55;;
8542;SDS011;4309;42.658;23.380;2024-03-17T05:58:42;17.30;;;8.15;;
8542;SDS011;4309;42.658;23.380;2024-03-17T06:01:09;14.47;;;7.37;;
8542;SDS011;4309;42.658;23.380;2024-03-17T06:03:37;14.30;;;7.30;;
8542;SDS011;4309;42.658;23.380;2024-03-17T06:06:05;12.98;;;8.02;;
8542;SDS011;4309;42.658;23.380;2024-03-17T06:08:38;13.57;;;7.28;;
8542;SDS011;4309;42.658;23.380;2024-03-17T06:11:05;15.55;;;7.97;;
8542;SDS011;4309;42.658;23.380;2024-03-17T06:13:32;19.00;;;8.00;;
8542;SDS011;4309;42.658;23.380;2024-03-17T06:16:01;15.40;;;7.80;;
8542;SDS011;4309;42.658;23.380;2024-03-17T06:18:28;17.55;;;9.10;;
8542;SDS011;4309;42.658;23.380;2024-03-17T06:23:29;23.02;;;11.57;;
8542;SDS011;4309;42.658;23.380;2024-03-17T06:25:57;18.73;;;9.68;;
8542;SDS011;4309;42.658;23.380;2024-03-17T06:28:24;21.95;;;11.60;;
8542;SDS011;4309;42.658;23.380;2024-03-17T06:30:58;18.70;;;9.90;;
8542;SDS011;4309;42.658;23.380;2024-03-17T06:33:26;15.60;;;8.75;;
8542;SDS011;4309;42.658;23.380;2024-03-17T06:35:54;14.32;;;8.32;;
8542;SDS011;4309;42.658;23.380;2024-03-17T14:24:24;15.95;;;7.35;;
8542;SDS011;4309;42.658;23.380;2024-03-17T14:26:49;107.90;;;30.63;;
8542;SDS011;4309;42.658;23.380;2024-03-17T14:29:14;59.30;;;17.93;;
8542;SDS011;4309;42.658;23.380;2024-03-17T14:31:41;16.98;;;7.60;;
8542;SDS011;4309;42.658;23.380;2024-03-17T14:34:09;8.02;;;4.18;;
8542;SDS011;4309;42.658;23.380;2024-03-17T14:36:35;9.43;;;4.25;;
8542;SDS011;4309;42.658;23.380;2024-03-17T14:39:02;8.90;;;5.35;;
8542;SDS011;4309;42.658;23.380;2024-03-17T14:41:28;9.57;;;4.20;;
8542;SDS011;4309;42.658;23.380;2024-03-17T14:43:54;8.00;;;4.78;;
8542;SDS011;4309;42.658;23.380;2024-03-17T14:46:20;7.55;;;4.25;;
8542;SDS011;4309;42.658;23.380;2024-03-17T14:48:46;7.07;;;4.57;;
8542;SDS011;4309;42.658;23.380;2024-03-17T14:51:12;7.80;;;4.55;;
8542;SDS011;4309;42.658;23.380;2024-03-17T14:53:38;6.80;;;3.50;;
8542;SDS011;4309;42.658;23.380;2024-03-17T14:56:12;6.32;;;4.03;;
8542;SDS011;4309;42.658;23.380;2024-03-17T14:58:39;10.43;;;5.30;;
8542;SDS011;4309;42.658;23.380;2024-03-17T15:01:05;9.40;;;4.50;;
8542;SDS011;4309;42.658;23.380;2024-03-17T15:03:30;8.55;;;4.68;;
8542;SDS011;4309;42.658;23.380;2024-03-17T15:05:55;9.13;;;4.77;;
8542;SDS011;4309;42.658;23.380;2024-03-17T15:08:21;7.30;;;4.67;;
8542;SDS011;4309;42.658;23.380;2024-03-17T15:10:46;11.13;;;5.30;;
8542;SDS011;4309;42.658;23.380;2024-03-17T15:13:11;12.20;;;4.87;;
8542;SDS011;4309;42.658;23.380;2024-03-17T15:15:40;9.57;;;4.28;;
8542;SDS011;4309;42.658;23.380;2024-03-17T15:18:05;8.65;;;5.28;;
8542;SDS011;4309;42.658;23.380;2024-03-17T15:20:33;6.83;;;4.03;;
8542;SDS011;4309;42.658;23.380;2024-03-17T15:23:00;8.57;;;5.80;;
8542;SDS011;4309;42.658;23.380;2024-03-17T15:25:25;9.23;;;6.07;;
8542;SDS011;4309;42.658;23.380;2024-03-17T15:27:51;9.10;;;5.17;;
8542;SDS011;4309;42.658;23.380;2024-03-17T15:30:17;9.37;;;5.73;;
8542;SDS011;4309;42.658;23.380;2024-03-17T15:32:47;8.85;;;5.57;;
8542;SDS011;4309;42.658;23.380;2024-03-17T15:35:13;9.02;;;4.88;;
8542;SDS011;4309;42.658;23.380;2024-03-17T15:37:40;10.05;;;5.63;;
8542;SDS011;4309;42.658;23.380;2024-03-17T15:40:06;8.90;;;5.05;;
8542;SDS011;4309;42.658;23.380;2024-03-17T15:42:45;8.17;;;5.00;;
8542;SDS011;4309;42.658;23.380;2024-03-17T15:45:15;11.15;;;5.20;;
8542;SDS011;4309;42.658;23.380;2024-03-17T15:47:43;9.80;;;5.35;;
8542;SDS011;4309;42.658;23.380;2024-03-17T15:50:10;8.75;;;4.60;;
8542;SDS011;4309;42.658;23.380;2024-03-17T15:52:35;8.20;;;5.37;;
8542;SDS011;4309;42.658;23.380;2024-03-17T15:55:02;8.65;;;5.68;;
8542;SDS011;4309;42.658;23.380;2024-03-17T15:57:28;8.55;;;5.13;;
8542;SDS011;4309;42.658;23.380;2024-03-17T15:59:54;8.40;;;5.50;;
8542;SDS011;4309;42.658;23.380;2024-03-17T16:02:20;11.05;;;5.20;;
8542;SDS011;4309;42.658;23.380;2024-03-17T16:04:46;9.87;;;5.07;;
8542;SDS011;4309;42.658;23.380;2024-03-17T16:07:16;8.13;;;4.85;;
8542;SDS011;4309;42.658;23.380;2024-03-17T16:09:43;9.60;;;5.47;;
8542;SDS011;4309;42.658;23.380;2024-03-17T16:12:09;9.18;;;5.25;;
8542;SDS011;4309;42.658;23.380;2024-03-17T16:14:35;9.77;;;5.57;;
8542;SDS011;4309;42.658;23.380;2024-03-17T16:17:03;10.47;;;5.13;;
8542;SDS011;4309;42.658;23.380;2024-03-17T16:19:33;8.38;;;5.18;;
8542;SDS011;4309;42.658;23.380;2024-03-17T16:21:59;9.15;;;5.72;;
8542;SDS011;4309;42.658;23.380;2024-03-17T16:24:26;10.00;;;5.82;;
8542;SDS011;4309;42.658;23.380;2024-03-17T16:26:52;10.30;;;6.07;;
8542;SDS011;4309;42.658;23.380;2024-03-17T16:29:19;9.10;;;5.80;;
8542;SDS011;4309;42.658;23.380;2024-03-17T16:31:45;9.77;;;6.03;;
8542;SDS011;4309;42.658;23.380;2024-03-17T16:34:11;10.07;;;6.07;;
8542;SDS011;4309;42.658;23.380;2024-03-17T16:36:37;13.02;;;6.95;;
8542;SDS011;4309;42.658;23.380;2024-03-17T16:39:07;9.80;;;6.28;;
8542;SDS011;4309;42.658;23.380;2024-03-17T16:41:35;10.32;;;6.55;;
8542;SDS011;4309;42.658;23.380;2024-03-17T16:44:13;12.57;;;6.50;;
8542;SDS011;4309;42.658;23.380;2024-03-17T16:49:17;13.80;;;6.07;;
8542;SDS011;4309;42.658;23.380;2024-03-17T16:51:45;10.95;;;6.47;;
8542;SDS011;4309;42.658;23.380;2024-03-17T16:54:11;9.97;;;6.57;;
8542;SDS011;4309;42.658;23.380;2024-03-17T16:56:37;13.80;;;7.20;;
8542;SDS011;4309;42.658;23.380;2024-03-17T16:59:03;13.23;;;7.10;;
8542;SDS011;4309;42.658;23.380;2024-03-17T17:01:31;12.60;;;6.85;;
8542;SDS011;4309;42.658;23.380;2024-03-17T17:03:57;12.83;;;6.93;;
8542;SDS011;4309;42.658;23.380;2024-03-17T17:06:22;12.00;;;7.13;;
8542;SDS011;4309;42.658;23.380;2024-03-17T17:08:48;13.05;;;7.65;;
8542;SDS011;4309;42.658;23.380;2024-03-17T17:11:15;11.03;;;6.67;;
8542;SDS011;4309;42.658;23.380;2024-03-17T17:13:42;13.52;;;7.28;;
8542;SDS011;4309;42.658;23.380;2024-03-17T17:16:09;14.35;;;8.02;;
8542;SDS011;4309;42.658;23.380;2024-03-17T17:21:21;12.65;;;6.80;;
8542;SDS011;4309;42.658;23.380;2024-03-17T17:23:47;11.75;;;7.07;;
8542;SDS011;4309;42.658;23.380;2024-03-17T17:26:19;12.07;;;6.70;;
8542;SDS011;4309;42.658;23.380;2024-03-17T17:28:52;13.50;;;7.50;;
8542;SDS011;4309;42.658;23.380;2024-03-17T17:31:22;11.48;;;7.20;;
8542;SDS011;4309;42.658;23.380;2024-03-17T17:33:51;12.02;;;7.80;;
8542;SDS011;4309;42.658;23.380;2024-03-17T17:36:17;12.38;;;7.03;;
8542;SDS011;4309;42.658;23.380;2024-03-17T17:38:43;14.00;;;7.05;;
8542;SDS011;4309;42.658;23.380;2024-03-17T17:41:09;12.93;;;7.30;;
8542;SDS011;4309;42.658;23.380;2024-03-17T17:43:36;13.00;;;7.30;;
8542;SDS011;4309;42.658;23.380;2024-03-17T17:46:06;10.98;;;6.90;;
8542;SDS011;4309;42.658;23.380;2024-03-17T17:48:32;12.43;;;7.37;;
8542;SDS011;4309;42.658;23.380;2024-03-17T17:51:01;14.45;;;7.03;;
8542;SDS011;4309;42.658;23.380;2024-03-17T17:53:27;11.68;;;7.45;;
8542;SDS011;4309;42.658;23.380;2024-03-17T17:55:53;12.73;;;7.57;;
8542;SDS011;4309;42.658;23.380;2024-03-17T17:58:19;15.30;;;8.85;;
8542;SDS011;4309;42.658;23.380;2024-03-17T18:00:45;14.70;;;7.83;;
8542;SDS011;4309;42.658;23.380;2024-03-17T18:03:10;14.90;;;8.07;;
8542;SDS011;4309;42.658;23.380;2024-03-17T18:05:39;13.20;;;7.95;;
8542;SDS011;4309;42.658;23.380;2024-03-17T18:08:06;13.88;;;8.15;;
8542;SDS011;4309;42.658;23.380;2024-03-17T18:10:36;13.25;;;8.10;;
8542;SDS011;4309;42.658;23.380;2024-03-17T18:13:03;16.75;;;8.20;;
8542;SDS011;4309;42.658;23.380;2024-03-17T18:15:29;13.80;;;8.75;;
8542;SDS011;4309;42.658;23.380;2024-03-17T18:17:54;12.90;;;7.47;;
8542;SDS011;4309;42.658;23.380;2024-03-17T18:20:20;15.20;;;9.00;;
8542;SDS011;4309;42.658;23.380;2024-03-17T18:22:45;13.80;;;8.07;;
8542;SDS011;4309;42.658;23.380;2024-03-17T18:25:11;12.83;;;7.83;;
8542;SDS011;4309;42.658;23.380;2024-03-17T18:27:37;13.10;;;7.70;;
8542;SDS011;4309;42.658;23.380;2024-03-17T18:30:03;14.67;;;7.40;;
8542;SDS011;4309;42.658;23.380;2024-03-17T18:32:29;12.80;;;6.43;;
8542;SDS011;4309;42.658;23.380;2024-03-17T18:34:55;12.85;;;6.63;;
8542;SDS011;4309;42.658;23.380;2024-03-17T18:37:24;10.07;;;6.23;;
8542;SDS011;4309;42.658;23.380;2024-03-17T18:39:52;9.85;;;5.75;;
8542;SDS011;4309;42.658;23.380;2024-03-17T18:42:17;9.75;;;5.72;;
8542;SDS011;4309;42.658;23.380;2024-03-17T18:44:44;10.35;;;5.68;;
8542;SDS011;4309;42.658;23.380;2024-03-17T18:47:10;8.70;;;5.40;;
8542;SDS011;4309;42.658;23.380;2024-03-17T18:49:36;9.50;;;5.15;;
8542;SDS011;4309;42.658;23.380;2024-03-17T18:52:02;10.52;;;5.82;;
8542;SDS011;4309;42.658;23.380;2024-03-17T18:54:29;10.07;;;5.75;;
8542;SDS011;4309;42.658;23.380;2024-03-17T18:56:55;9.43;;;5.47;;
8542;SDS011;4309;42.658;23.380;2024-03-17T18:59:20;10.90;;;6.23;;
8542;SDS011;4309;42.658;23.380;2024-03-17T19:01:46;9.57;;;5.15;;
8542;SDS011;4309;42.658;23.380;2024-03-17T19:04:12;22.13;;;10.07;;
8542;SDS011;4309;42.658;23.380;2024-03-17T19:06:37;10.82;;;6.50;;
8542;SDS011;4309;42.658;23.380;2024-03-17T19:09:03;11.03;;;6.57;;
8542;SDS011;4309;42.658;23.380;2024-03-17T19:11:33;12.73;;;6.30;;
8542;SDS011;4309;42.658;23.380;2024-03-17T19:14:00;12.88;;;6.50;;
8542;SDS011;4309;42.658;23.380;2024-03-17T19:16:26;11.45;;;6.07;;
8542;SDS011;4309;42.658;23.380;2024-03-17T19:18:51;11.40;;;6.70;;
8542;SDS011;4309;42.658;23.380;2024-03-17T19:21:16;12.50;;;6.30;;
8542;SDS011;4309;42.658;23.380;2024-03-17T19:23:43;11.27;;;6.30;;
8542;SDS011;4309;42.658;23.380;2024-03-17T19:26:10;11.90;;;6.93;;
8542;SDS011;4309;42.658;23.380;2024-03-17T19:28:37;12.75;;;7.00;;
8542;SDS011;4309;42.658;23.380;2024-03-17T19:31:04;10.07;;;6.20;;
8542;SDS011;4309;42.658;23.380;2024-03-17T19:33:30;11.15;;;6.80;;
8542;SDS011;4309;42.658;23.380;2024-03-17T19:35:56;11.82;;;6.97;;
8542;SDS011;4309;42.658;23.380;2024-03-17T19:38:23;10.30;;;6.30;;
8542;SDS011;4309;42.658;23.380;2024-03-17T19:40:53;12.48;;;7.07;;
8542;SDS011;4309;42.658;23.380;2024-03-17T19:43:22;11.25;;;6.32;;
8542;SDS011;4309;42.658;23.380;2024-03-17T19:46:05;13.02;;;7.20;;
8542;SDS011;4309;42.658;23.380;2024-03-17T19:48:47;13.15;;;8.23;;
8542;SDS011;4309;42.658;23.380;2024-03-17T19:51:17;13.23;;;7.50;;
8542;SDS011;4309;42.658;23.380;2024-03-17T19:53:44;14.05;;;7.57;;
8542;SDS011;4309;42.658;23.380;2024-03-17T19:56:10;13.63;;;8.23;;
8542;SDS011;4309;42.658;23.380;2024-03-17T19:58:41;13.32;;;7.90;;
8542;SDS011;4309;42.658;23.380;2024-03-17T20:01:07;13.52;;;7.95;;
8542;SDS011;4309;42.658;23.380;2024-03-17T20:03:34;15.30;;;9.80;;
8542;SDS011;4309;42.658;23.380;2024-03-17T20:06:01;16.35;;;9.80;;
8542;SDS011;4309;42.658;23.380;2024-03-17T20:08:28;16.58;;;7.97;;
8542;SDS011;4309;42.658;23.380;2024-03-17T20:10:54;13.43;;;8.10;;
8542;SDS011;4309;42.658;23.380;2024-03-17T20:13:20;14.20;;;7.75;;
8542;SDS011;4309;42.658;23.380;2024-03-17T20:15:47;13.20;;;7.10;;
8542;SDS011;4309;42.658;23.380;2024-03-17T20:18:15;13.02;;;7.75;;
8542;SDS011;4309;42.658;23.380;2024-03-17T20:20:40;11.93;;;7.57;;
8542;SDS011;4309;42.658;23.380;2024-03-17T20:23:06;13.50;;;7.43;;
8542;SDS011;4309;42.658;23.380;2024-03-17T20:25:31;12.20;;;7.77;;
8542;SDS011;4309;42.658;23.380;2024-03-17T20:27:57;12.43;;;7.33;;
8542;SDS011;4309;42.658;23.380;2024-03-17T20:30:25;12.30;;;6.95;;
8542;SDS011;4309;42.658;23.380;2024-03-17T20:32:50;10.48;;;6.95;;
8542;SDS011;4309;42.658;23.380;2024-03-17T20:35:16;10.77;;;6.57;;
8542;SDS011;4309;42.658;23.380;2024-03-17T20:37:47;10.25;;;6.35;;
8542;SDS011;4309;42.658;23.380;2024-03-17T20:40:18;10.88;;;6.97;;
8542;SDS011;4309;42.658;23.380;2024-03-17T20:42:44;11.52;;;7.05;;
8542;SDS011;4309;42.658;23.380;2024-03-17T20:45:26;9.65;;;6.15;;
8542;SDS011;4309;42.658;23.380;2024-03-17T20:47:53;10.27;;;6.22;;
8542;SDS011;4309;42.658;23.380;2024-03-17T20:50:20;10.88;;;6.10;;
8542;SDS011;4309;42.658;23.380;2024-03-17T20:52:48;10.32;;;5.95;;
8542;SDS011;4309;42.658;23.380;2024-03-17T20:55:15;9.40;;;6.22;;
8542;SDS011;4309;42.658;23.380;2024-03-17T20:57:45;11.15;;;6.80;;
8542;SDS011;4309;42.658;23.380;2024-03-17T21:00:18;10.82;;;5.53;;
8542;SDS011;4309;42.658;23.380;2024-03-17T21:02:48;10.00;;;5.68;;
8542;SDS011;4309;42.658;23.380;2024-03-17T21:05:20;8.98;;;4.90;;
8542;SDS011;4309;42.658;23.380;2024-03-17T21:07:48;10.20;;;6.13;;
8542;SDS011;4309;42.658;23.380;2024-03-17T21:10:14;8.98;;;5.40;;
8542;SDS011;4309;42.658;23.380;2024-03-17T21:12:40;9.43;;;5.85;;
8542;SDS011;4309;42.658;23.380;2024-03-17T21:15:07;10.07;;;5.60;;
8542;SDS011;4309;42.658;23.380;2024-03-17T21:17:34;9.07;;;5.13;;
8542;SDS011;4309;42.658;23.380;2024-03-17T21:20:01;9.70;;;6.10;;
8542;SDS011;4309;42.658;23.380;2024-03-17T21:22:30;10.88;;;6.15;;
8542;SDS011;4309;42.658;23.380;2024-03-17T21:24:56;8.87;;;5.53;;
8542;SDS011;4309;42.658;23.380;2024-03-17T21:27:22;8.77;;;5.30;;
8542;SDS011;4309;42.658;23.380;2024-03-17T21:29:50;11.23;;;5.95;;
8542;SDS011;4309;42.658;23.380;2024-03-17T21:32:17;15.68;;;8.82;;
8542;SDS011;4309;42.658;23.380;2024-03-17T21:34:43;11.43;;;7.20;;
8542;SDS011;4309;42.658;23.380;2024-03-17T21:37:08;11.27;;;6.63;;
8542;SDS011;4309;42.658;23.380;2024-03-17T21:39:34;11.33;;;6.90;;
8542;SDS011;4309;42.658;23.380;2024-03-17T21:41:59;12.77;;;6.35;;
8542;SDS011;4309;42.658;23.380;2024-03-17T21:44:24;11.63;;;6.80;;
8542;SDS011;4309;42.658;23.380;2024-03-17T21:46:50;11.07;;;6.67;;
8542;SDS011;4309;42.658;23.380;2024-03-17T21:49:16;10.88;;;6.22;;
8542;SDS011;4309;42.658;23.380;2024-03-17T21:51:41;13.23;;;6.87;;
8542;SDS011;4309;42.658;23.380;2024-03-17T21:54:06;9.17;;;5.87;;
8542;SDS011;4309;42.658;23.380;2024-03-17T21:56:32;11.05;;;6.50;;
8542;SDS011;4309;42.658;23.380;2024-03-17T21:58:58;11.53;;;6.83;;
8542;SDS011;4309;42.658;23.380;2024-03-17T22:01:23;11.63;;;6.20;;
8542;SDS011;4309;42.658;23.380;2024-03-17T22:03:49;9.90;;;6.50;;
8542;SDS011;4309;42.658;23.380;2024-03-17T22:06:14;10.70;;;5.82;;
8542;SDS011;4309;42.658;23.380;2024-03-17T22:08:39;11.67;;;5.53;;
8542;SDS011;4309;42.658;23.380;2024-03-17T22:11:05;9.90;;;6.07;;
8542;SDS011;4309;42.658;23.380;2024-03-17T22:13:32;9.85;;;5.65;;
8542;SDS011;4309;42.658;23.380;2024-03-17T22:15:58;9.80;;;5.80;;
8542;SDS011;4309;42.658;23.380;2024-03-17T22:18:29;11.65;;;5.90;;
8542;SDS011;4309;42.658;23.380;2024-03-17T22:20:55;11.07;;;6.07;;
8542;SDS011;4309;42.658;23.380;2024-03-17T22:23:26;9.77;;;6.10;;
8542;SDS011;4309;42.658;23.380;2024-03-17T22:25:52;12.85;;;5.65;;
8542;SDS011;4309;42.658;23.380;2024-03-17T22:28:25;10.80;;;5.75;;
8542;SDS011;4309;42.658;23.380;2024-03-17T22:30:52;12.30;;;5.67;;
8542;SDS011;4309;42.658;23.380;2024-03-17T22:33:28;11.50;;;6.60;;
8542;SDS011;4309;42.658;23.380;2024-03-17T22:36:12;12.68;;;6.07;;
8542;SDS011;4309;42.658;23.380;2024-03-17T22:38:38;10.23;;;5.85;;
8542;SDS011;4309;42.658;23.380;2024-03-17T22:41:07;10.10;;;6.23;;
8542;SDS011;4309;42.658;23.380;2024-03-17T22:43:35;11.05;;;6.28;;
8542;SDS011;4309;42.658;23.380;2024-03-17T22:46:03;11.00;;;6.20;;